Rhapsody Of The Seas — C6UA2 — position and weather

sailwx.info

Track history (hours):
 
Tides and Currents Weather Stations Pressure Air Temp Water Temp Dewpoint Dewpoint Depression Visibility Wind Speed Wind Dir Waves Ship Positions

Rhapsody Of The Seas

Last reported at 2015-May-30 09:32 UTC. Time now 2015-May-30 10:34 UTC.
Position N 37°56' E 023°38'.

Type: Passenger vessel. MMSI: 311805000.

Date/timePositionNaut miles runAvg speedWind from/ knotsBaromVisibWave heightAir tempDewpointWater temp
2015-May-30 09:32N 37°56' E 023°38'0 0.0
2015-May-30 08:32N 37°56' E 023°38'0 0.0
2015-May-30 07:29N 37°56' E 023°38'0 0.0
2015-May-30 06:32N 37°56' E 023°38'0 0.0
2015-May-30 05:29N 37°56' E 023°38'0 0.0
2015-May-30 04:32N 37°56' E 023°38'0 0.0
2015-May-30 03:32N 37°56' E 023°38'0 0.0
2015-May-30 02:32N 37°56' E 023°38'0 0.1
2015-May-30 01:34N 37°56' E 023°38'9 8.7
2015-May-30 00:34N 37°48' E 023°41'1313.4
2015-May-29 23:34N 37°36' E 023°48'7612.2
2015-May-29 17:18N 36°37' E 024°48'911.3
2015-May-29 16:32N 36°32' E 024°57'1212.5
2015-May-29 15:33N 36°30' E 025°12'1111.1
2015-May-29 14:32N 36°25' E 025°25'0 0.0
2015-May-29 13:32N 36°25' E 025°25'0 0.0
2015-May-29 12:33N 36°25' E 025°25'0 0.0
2015-May-29 11:33N 36°25' E 025°25'0 0.1
2015-May-29 10:33N 36°25' E 025°25'0 0.0
2015-May-29 09:32N 36°25' E 025°25'0 0.0
2015-May-29 08:33N 36°25' E 025°25'0 0.1
2015-May-29 07:32N 36°25' E 025°25'0 0.3
2015-May-29 06:32N 36°25' E 025°25'5 5.4
2015-May-29 05:32N 36°30' E 025°27'1313.5
2015-May-29 04:33N 36°28' E 025°43'1313.3
2015-May-29 03:33N 36°25' E 025°59'1413.4
2015-May-29 02:29N 36°19' E 026°15'21814.1
2015-May-28 11:00N 34°36' E 030°12'7313.4 280 / 201007.5 5.4 2.023.018.524.0
2015-May-28 05:33N 34°06' E 031°32'1414.1
2015-May-28 04:33N 33°59' E 031°47'1413.8
2015-May-28 03:33N 33°53' E 032°03'1413.8
2015-May-28 02:33N 33°47' E 032°17'1413.9
2015-May-28 01:33N 33°40' E 032°32'1414.0
2015-May-28 00:34N 33°34' E 032°47'1414.1
2015-May-27 23:34N 33°27' E 033°02'1414.4
2015-May-27 22:33N 33°21' E 033°17'1714.2
2015-May-27 21:21N 33°13' E 033°36'1114.2
2015-May-27 20:33N 33°08' E 033°48'1414.0
2015-May-27 19:32N 33°02' E 034°03'3315.1
2015-May-27 17:22N 32°56' E 034°41'1334.6
2015-May-27 17:00N 32°48' E 034°54'5 0.4 180 / 281003.0 30.520.530.0
2015-May-27 04:25N 32°49' E 035°00'0 0.1
2015-May-27 03:31N 32°49' E 035°00'4 4.3
2015-May-27 02:34N 32°52' E 034°57'8 8.0
2015-May-27 01:33N 32°47' E 034°49'1010.4
2015-May-27 00:34N 32°37' E 034°46'1110.6
2015-May-26 23:33N 32°27' E 034°42'1110.7
2015-May-26 22:34N 32°17' E 034°38'1110.5
2015-May-26 21:33N 32°07' E 034°35'1010.4
2015-May-26 20:34N 31°57' E 034°30'7 6.8
2015-May-26 19:34N 31°51' E 034°34'4 2.7
2015-May-26 18:04N 31°50' E 034°39'0 0.0
2015-May-26 17:28N 31°50' E 034°39'0 0.0
2015-May-26 16:28N 31°50' E 034°39'0 0.0
2015-May-26 14:31N 31°50' E 034°39'15 1.0
2015-May-26 00:14N 31°54' E 034°22'5 7.4
2015-May-25 23:33N 31°56' E 034°16'9 7.7
2015-May-25 22:26N 31°60' E 034°07'7 7.5
2015-May-25 21:33N 32°03' E 034°00'8 7.6
2015-May-25 20:33N 32°06' E 033°53'7 7.5
2015-May-25 19:33N 32°10' E 033°45'7 7.4
2015-May-25 18:33N 32°14' E 033°37'7 7.3
2015-May-25 17:33N 32°18' E 033°30'6 6.5
2015-May-25 16:33N 32°18' E 033°22'8 7.5
2015-May-25 15:30N 32°12' E 033°16'7 7.1
2015-May-25 14:33N 32°08' E 033°10'8 7.1
2015-May-25 13:23N 32°02' E 033°03'7 7.2
2015-May-25 12:26N 31°57' E 032°57'6 7.3
2015-May-25 11:33N 31°52' E 032°52'7 7.4
2015-May-25 10:33N 31°47' E 032°45'22 7.2
2015-May-25 07:30N 31°35' E 032°24'7 7.1
2015-May-25 06:33N 31°29' E 032°22'21 5.3
2015-May-25 02:33N 31°08' E 032°18'47816.2
2015-May-23 21:00N 24°00' E 036°18'29119.4 360 / 201007.0 27.027.032.0
2015-May-23 06:00N 19°48' E 038°54'   330 / 201007.0 29.029.032.0
2015-May-20 19:00N 15°18' E 053°24'   090 / 201007.0 0.529.029.033.0
Track history (hours):
 
Tides and Currents Weather Stations Pressure Air Temp Water Temp Dewpoint Dewpoint Depression Visibility Wind Speed Wind Dir Waves Ship Positions

Rhapsody Of The Seas

Last reported at 2015-May-30 09:32 UTC. Time now 2015-May-30 10:34 UTC.
Position N 37°56' E 023°38'.

Type: Passenger vessel. MMSI: 311805000.

Date/timePositionNaut miles runAvg speedWind from/ knotsBaromVisibWave heightAir tempDewpointWater temp
2015-May-30 09:32N 37°56' E 023°38'0 0.0
2015-May-30 08:32N 37°56' E 023°38'0 0.0
2015-May-30 07:29N 37°56' E 023°38'0 0.0
2015-May-30 06:32N 37°56' E 023°38'0 0.0
2015-May-30 05:29N 37°56' E 023°38'0 0.0
2015-May-30 04:32N 37°56' E 023°38'0 0.0
2015-May-30 03:32N 37°56' E 023°38'0 0.0
2015-May-30 02:32N 37°56' E 023°38'0 0.1
2015-May-30 01:34N 37°56' E 023°38'9 8.7
2015-May-30 00:34N 37°48' E 023°41'1313.4
2015-May-29 23:34N 37°36' E 023°48'7612.2
2015-May-29 17:18N 36°37' E 024°48'911.3
2015-May-29 16:32N 36°32' E 024°57'1212.5
2015-May-29 15:33N 36°30' E 025°12'1111.1
2015-May-29 14:32N 36°25' E 025°25'0 0.0
2015-May-29 13:32N 36°25' E 025°25'0 0.0
2015-May-29 12:33N 36°25' E 025°25'0 0.0
2015-May-29 11:33N 36°25' E 025°25'0 0.1
2015-May-29 10:33N 36°25' E 025°25'0 0.0
2015-May-29 09:32N 36°25' E 025°25'0 0.0
2015-May-29 08:33N 36°25' E 025°25'0 0.1
2015-May-29 07:32N 36°25' E 025°25'0 0.3
2015-May-29 06:32N 36°25' E 025°25'5 5.4
2015-May-29 05:32N 36°30' E 025°27'1313.5
2015-May-29 04:33N 36°28' E 025°43'1313.3
2015-May-29 03:33N 36°25' E 025°59'1413.4
2015-May-29 02:29N 36°19' E 026°15'21814.1
2015-May-28 11:00N 34°36' E 030°12'7313.4 280 / 201007.5 5.4 2.023.018.524.0
2015-May-28 05:33N 34°06' E 031°32'1414.1
2015-May-28 04:33N 33°59' E 031°47'1413.8
2015-May-28 03:33N 33°53' E 032°03'1413.8
2015-May-28 02:33N 33°47' E 032°17'1413.9
2015-May-28 01:33N 33°40' E 032°32'1414.0
2015-May-28 00:34N 33°34' E 032°47'1414.1
2015-May-27 23:34N 33°27' E 033°02'1414.4
2015-May-27 22:33N 33°21' E 033°17'1714.2
2015-May-27 21:21N 33°13' E 033°36'1114.2
2015-May-27 20:33N 33°08' E 033°48'1414.0
2015-May-27 19:32N 33°02' E 034°03'3315.1
2015-May-27 17:22N 32°56' E 034°41'1334.6
2015-May-27 17:00N 32°48' E 034°54'5 0.4 180 / 281003.0 30.520.530.0
2015-May-27 04:25N 32°49' E 035°00'0 0.1
2015-May-27 03:31N 32°49' E 035°00'4 4.3
2015-May-27 02:34N 32°52' E 034°57'8 8.0
2015-May-27 01:33N 32°47' E 034°49'1010.4
2015-May-27 00:34N 32°37' E 034°46'1110.6
2015-May-26 23:33N 32°27' E 034°42'1110.7
2015-May-26 22:34N 32°17' E 034°38'1110.5
2015-May-26 21:33N 32°07' E 034°35'1010.4
2015-May-26 20:34N 31°57' E 034°30'7 6.8
2015-May-26 19:34N 31°51' E 034°34'4 2.7
2015-May-26 18:04N 31°50' E 034°39'0 0.0
2015-May-26 17:28N 31°50' E 034°39'0 0.0
2015-May-26 16:28N 31°50' E 034°39'0 0.0
2015-May-26 14:31N 31°50' E 034°39'15 1.0
2015-May-26 00:14N 31°54' E 034°22'5 7.4
2015-May-25 23:33N 31°56' E 034°16'9 7.7
2015-May-25 22:26N 31°60' E 034°07'7 7.5
2015-May-25 21:33N 32°03' E 034°00'8 7.6
2015-May-25 20:33N 32°06' E 033°53'7 7.5
2015-May-25 19:33N 32°10' E 033°45'7 7.4
2015-May-25 18:33N 32°14' E 033°37'7 7.3
2015-May-25 17:33N 32°18' E 033°30'6 6.5
2015-May-25 16:33N 32°18' E 033°22'8 7.5
2015-May-25 15:30N 32°12' E 033°16'7 7.1
2015-May-25 14:33N 32°08' E 033°10'8 7.1
2015-May-25 13:23N 32°02' E 033°03'7 7.2
2015-May-25 12:26N 31°57' E 032°57'6 7.3
2015-May-25 11:33N 31°52' E 032°52'7 7.4
2015-May-25 10:33N 31°47' E 032°45'22 7.2
2015-May-25 07:30N 31°35' E 032°24'7 7.1
2015-May-25 06:33N 31°29' E 032°22'21 5.3
2015-May-25 02:33N 31°08' E 032°18'47816.2
2015-May-23 21:00N 24°00' E 036°18'29119.4 360 / 201007.0 27.027.032.0
2015-May-23 06:00N 19°48' E 038°54'   330 / 201007.0 29.029.032.0
2015-May-20 19:00N 15°18' E 053°24'   090 / 201007.0 0.529.029.033.0

Dump ship's entire track history